Terminal Aerodrome Forecast
Issued by NWS

Current Version | Previous Version | Text Only | Print | Product List | Glossary On
Versions: 1 2 3 4 5 6 7 8 9 10 11 12 13
000
FTUS46 KMTR 282300
TAFSJC
TAF
KSJC 282329Z 2900/2924 32005KT P6SM FEW015 SCT150
     FM290300 17007KT P6SM SCT050 BKN100
     FM290700 15006G13KT P6SM BKN030
     FM291300 12009KT 4SM -RA BR OVC025
     FM292100 14008KT P6SM VCSH BKN050=

USA.gov is the U.S. government's official web portal to all federal, state and local government web resources and services.